sensor_id;sensor_type;location;lat;lon;timestamp;temperature;humidity
19252;DHT22;9760;50.944;5.304;2023-05-10T00:01:15;13.30;99.90
19252;DHT22;9760;50.944;5.304;2023-05-10T00:03:40;13.20;99.90
19252;DHT22;9760;50.944;5.304;2023-05-10T00:06:06;13.20;99.90
19252;DHT22;9760;50.944;5.304;2023-05-10T00:08:32;13.20;99.90
19252;DHT22;9760;50.944;5.304;2023-05-10T00:10:57;13.20;99.90
19252;DHT22;9760;50.944;5.304;2023-05-10T00:13:23;13.20;99.90
19252;DHT22;9760;50.944;5.304;2023-05-10T00:15:49;13.20;99.90
19252;DHT22;9760;50.944;5.304;2023-05-10T00:18:15;13.20;99.90
19252;DHT22;9760;50.944;5.304;2023-05-10T00:20:40;13.20;99.90
19252;DHT22;9760;50.944;5.304;2023-05-10T00:23:06;13.20;99.90
19252;DHT22;9760;50.944;5.304;2023-05-10T00:25:31;13.20;99.90
19252;DHT22;9760;50.944;5.304;2023-05-10T00:27:57;13.20;99.90
19252;DHT22;9760;50.944;5.304;2023-05-10T00:30:23;13.20;99.90
19252;DHT22;9760;50.944;5.304;2023-05-10T00:32:49;13.20;99.90
19252;DHT22;9760;50.944;5.304;2023-05-10T00:35:15;13.20;99.90
19252;DHT22;9760;50.944;5.304;2023-05-10T00:37:41;13.20;99.90
19252;DHT22;9760;50.944;5.304;2023-05-10T00:40:07;13.20;99.90
19252;DHT22;9760;50.944;5.304;2023-05-10T00:42:33;13.30;99.90
19252;DHT22;9760;50.944;5.304;2023-05-10T00:44:58;13.30;99.90
19252;DHT22;9760;50.944;5.304;2023-05-10T00:47:24;13.20;99.90
19252;DHT22;9760;50.944;5.304;2023-05-10T00:49:50;13.20;99.90
19252;DHT22;9760;50.944;5.304;2023-05-10T00:52:16;13.20;99.90
19252;DHT22;9760;50.944;5.304;2023-05-10T00:54:42;13.10;99.90
19252;DHT22;9760;50.944;5.304;2023-05-10T00:57:07;13.10;99.90
19252;DHT22;9760;50.944;5.304;2023-05-10T00:59:34;13.20;99.90
19252;DHT22;9760;50.944;5.304;2023-05-10T01:01:59;13.10;99.90
19252;DHT22;9760;50.944;5.304;2023-05-10T01:04:25;13.10;99.90
19252;DHT22;9760;50.944;5.304;2023-05-10T01:06:51;13.20;99.90
19252;DHT22;9760;50.944;5.304;2023-05-10T01:09:20;13.20;99.90
19252;DHT22;9760;50.944;5.304;2023-05-10T01:11:47;13.10;99.90
19252;DHT22;9760;50.944;5.304;2023-05-10T01:14:13;13.10;99.90
19252;DHT22;9760;50.944;5.304;2023-05-10T01:16:42;13.10;99.90
19252;DHT22;9760;50.944;5.304;2023-05-10T01:19:19;13.00;99.90
19252;DHT22;9760;50.944;5.304;2023-05-10T01:22:02;13.00;99.90
19252;DHT22;9760;50.944;5.304;2023-05-10T01:38:29;13.00;99.90
19252;DHT22;9760;50.944;5.304;2023-05-10T01:41:48;12.90;99.90
19252;DHT22;9760;50.944;5.304;2023-05-10T01:47:13;12.90;99.90
19252;DHT22;9760;50.944;5.304;2023-05-10T01:49:50;12.90;99.90
19252;DHT22;9760;50.944;5.304;2023-05-10T01:52:18;12.90;99.90
19252;DHT22;9760;50.944;5.304;2023-05-10T01:54:55;12.90;99.90
19252;DHT22;9760;50.944;5.304;2023-05-10T01:57:22;12.90;99.90
19252;DHT22;9760;50.944;5.304;2023-05-10T01:59:51;12.90;99.90
19252;DHT22;9760;50.944;5.304;2023-05-10T02:02:20;13.00;99.90
19252;DHT22;9760;50.944;5.304;2023-05-10T02:04:47;13.00;99.90
19252;DHT22;9760;50.944;5.304;2023-05-10T02:07:15;13.00;99.90
19252;DHT22;9760;50.944;5.304;2023-05-10T02:09:44;12.90;99.90
19252;DHT22;9760;50.944;5.304;2023-05-10T02:12:13;12.90;99.90
19252;DHT22;9760;50.944;5.304;2023-05-10T02:14:41;13.00;99.90
19252;DHT22;9760;50.944;5.304;2023-05-10T02:17:08;13.00;99.90
19252;DHT22;9760;50.944;5.304;2023-05-10T02:19:38;13.00;99.90
19252;DHT22;9760;50.944;5.304;2023-05-10T02:22:05;13.00;99.90
19252;DHT22;9760;50.944;5.304;2023-05-10T02:24:33;13.10;99.90
19252;DHT22;9760;50.944;5.304;2023-05-10T02:27:00;13.00;99.90
19252;DHT22;9760;50.944;5.304;2023-05-10T02:29:27;13.00;99.90
19252;DHT22;9760;50.944;5.304;2023-05-10T02:31:54;13.10;99.90
19252;DHT22;9760;50.944;5.304;2023-05-10T02:34:26;13.10;99.90
19252;DHT22;9760;50.944;5.304;2023-05-10T02:36:53;13.00;99.90
19252;DHT22;9760;50.944;5.304;2023-05-10T02:39:19;13.00;99.90
19252;DHT22;9760;50.944;5.304;2023-05-10T02:41:47;13.00;99.90
19252;DHT22;9760;50.944;5.304;2023-05-10T02:44:15;13.00;99.90
19252;DHT22;9760;50.944;5.304;2023-05-10T02:46:43;13.00;99.90
19252;DHT22;9760;50.944;5.304;2023-05-10T02:49:09;13.00;99.90
19252;DHT22;9760;50.944;5.304;2023-05-10T02:51:37;13.10;99.90
19252;DHT22;9760;50.944;5.304;2023-05-10T02:54:27;13.10;99.90
19252;DHT22;9760;50.944;5.304;2023-05-10T02:56:58;13.10;99.90
19252;DHT22;9760;50.944;5.304;2023-05-10T02:59:24;13.10;99.90
19252;DHT22;9760;50.944;5.304;2023-05-10T03:01:50;13.00;99.90
19252;DHT22;9760;50.944;5.304;2023-05-10T03:04:16;13.00;99.90
19252;DHT22;9760;50.944;5.304;2023-05-10T03:06:42;13.00;99.90
19252;DHT22;9760;50.944;5.304;2023-05-10T03:09:08;13.00;99.90
19252;DHT22;9760;50.944;5.304;2023-05-10T03:20:47;13.00;99.90
19252;DHT22;9760;50.944;5.304;2023-05-10T03:25:48;13.00;99.90
19252;DHT22;9760;50.944;5.304;2023-05-10T03:28:14;13.00;99.90
19252;DHT22;9760;50.944;5.304;2023-05-10T03:30:41;13.00;99.90
19252;DHT22;9760;50.944;5.304;2023-05-10T03:33:08;13.00;99.90
19252;DHT22;9760;50.944;5.304;2023-05-10T03:35:34;13.00;99.90
19252;DHT22;9760;50.944;5.304;2023-05-10T03:38:00;13.10;99.90
19252;DHT22;9760;50.944;5.304;2023-05-10T03:40:26;13.00;99.90
19252;DHT22;9760;50.944;5.304;2023-05-10T03:42:54;13.00;99.90
19252;DHT22;9760;50.944;5.304;2023-05-10T03:45:20;13.00;99.90
19252;DHT22;9760;50.944;5.304;2023-05-10T03:47:46;13.00;99.90
19252;DHT22;9760;50.944;5.304;2023-05-10T03:50:12;13.00;99.90
19252;DHT22;9760;50.944;5.304;2023-05-10T03:52:37;13.00;99.90
19252;DHT22;9760;50.944;5.304;2023-05-10T03:55:05;13.00;99.90
19252;DHT22;9760;50.944;5.304;2023-05-10T03:57:30;13.00;99.90
19252;DHT22;9760;50.944;5.304;2023-05-10T03:59:56;13.10;99.90
19252;DHT22;9760;50.944;5.304;2023-05-10T04:02:22;13.10;99.90
19252;DHT22;9760;50.944;5.304;2023-05-10T04:04:47;13.10;99.90
19252;DHT22;9760;50.944;5.304;2023-05-10T04:07:14;13.00;99.90
19252;DHT22;9760;50.944;5.304;2023-05-10T04:09:39;12.90;99.90
19252;DHT22;9760;50.944;5.304;2023-05-10T04:12:05;13.00;99.90
19252;DHT22;9760;50.944;5.304;2023-05-10T04:14:31;12.90;99.90
19252;DHT22;9760;50.944;5.304;2023-05-10T04:16:57;12.90;99.90
19252;DHT22;9760;50.944;5.304;2023-05-10T04:19:23;12.80;99.90
19252;DHT22;9760;50.944;5.304;2023-05-10T04:21:49;12.80;99.90
19252;DHT22;9760;50.944;5.304;2023-05-10T04:24:14;12.80;99.90
19252;DHT22;9760;50.944;5.304;2023-05-10T04:26:40;12.80;99.90
19252;DHT22;9760;50.944;5.304;2023-05-10T04:29:06;12.90;99.90
19252;DHT22;9760;50.944;5.304;2023-05-10T04:31:32;12.80;99.90
19252;DHT22;9760;50.944;5.304;2023-05-10T04:33:57;12.80;99.90
19252;DHT22;9760;50.944;5.304;2023-05-10T04:36:23;12.80;99.90
19252;DHT22;9760;50.944;5.304;2023-05-10T04:38:49;12.70;99.90
19252;DHT22;9760;50.944;5.304;2023-05-10T04:41:14;12.70;99.90
19252;DHT22;9760;50.944;5.304;2023-05-10T04:43:40;12.70;99.90
19252;DHT22;9760;50.944;5.304;2023-05-10T04:46:06;12.70;99.90
19252;DHT22;9760;50.944;5.304;2023-05-10T04:48:32;12.70;99.90
19252;DHT22;9760;50.944;5.304;2023-05-10T04:50:58;12.70;99.90
19252;DHT22;9760;50.944;5.304;2023-05-10T04:53:24;12.70;99.90
19252;DHT22;9760;50.944;5.304;2023-05-10T04:55:50;12.60;99.90
19252;DHT22;9760;50.944;5.304;2023-05-10T04:58:16;12.60;99.90
19252;DHT22;9760;50.944;5.304;2023-05-10T05:00:41;12.60;99.90
19252;DHT22;9760;50.944;5.304;2023-05-10T05:03:07;12.70;99.90
19252;DHT22;9760;50.944;5.304;2023-05-10T05:05:33;12.60;99.90
19252;DHT22;9760;50.944;5.304;2023-05-10T05:07:59;12.50;99.90
19252;DHT22;9760;50.944;5.304;2023-05-10T05:10:24;12.50;99.90
19252;DHT22;9760;50.944;5.304;2023-05-10T05:12:50;12.50;99.90
19252;DHT22;9760;50.944;5.304;2023-05-10T05:15:16;12.50;99.90
19252;DHT22;9760;50.944;5.304;2023-05-10T05:17:43;12.50;99.90
19252;DHT22;9760;50.944;5.304;2023-05-10T05:20:10;12.60;99.90
19252;DHT22;9760;50.944;5.304;2023-05-10T05:22:36;12.50;99.90
19252;DHT22;9760;50.944;5.304;2023-05-10T05:25:02;12.50;99.90
19252;DHT22;9760;50.944;5.304;2023-05-10T05:27:29;12.40;99.90
19252;DHT22;9760;50.944;5.304;2023-05-10T05:29:56;12.40;99.90
19252;DHT22;9760;50.944;5.304;2023-05-10T05:32:22;12.40;99.90
19252;DHT22;9760;50.944;5.304;2023-05-10T05:34:48;12.40;99.90
19252;DHT22;9760;50.944;5.304;2023-05-10T05:37:19;12.40;99.90
19252;DHT22;9760;50.944;5.304;2023-05-10T05:39:46;12.50;99.90
19252;DHT22;9760;50.944;5.304;2023-05-10T05:42:13;12.50;99.90
19252;DHT22;9760;50.944;5.304;2023-05-10T05:44:39;12.50;99.90
19252;DHT22;9760;50.944;5.304;2023-05-10T05:47:05;12.50;99.90
19252;DHT22;9760;50.944;5.304;2023-05-10T05:49:31;12.60;99.90
19252;DHT22;9760;50.944;5.304;2023-05-10T05:52:01;12.60;99.90
19252;DHT22;9760;50.944;5.304;2023-05-10T05:54:28;12.60;99.90
19252;DHT22;9760;50.944;5.304;2023-05-10T05:56:54;12.70;99.90
19252;DHT22;9760;50.944;5.304;2023-05-10T05:59:21;12.70;99.90
19252;DHT22;9760;50.944;5.304;2023-05-10T06:01:47;12.70;99.90
19252;DHT22;9760;50.944;5.304;2023-05-10T06:04:12;12.70;99.90
19252;DHT22;9760;50.944;5.304;2023-05-10T06:06:38;12.70;99.90
19252;DHT22;9760;50.944;5.304;2023-05-10T06:09:04;12.70;99.90
19252;DHT22;9760;50.944;5.304;2023-05-10T06:11:29;12.70;99.90
19252;DHT22;9760;50.944;5.304;2023-05-10T06:13:58;12.70;99.90
19252;DHT22;9760;50.944;5.304;2023-05-10T06:16:23;12.70;99.90
19252;DHT22;9760;50.944;5.304;2023-05-10T06:18:49;12.70;99.90
19252;DHT22;9760;50.944;5.304;2023-05-10T06:21:15;12.70;99.90
19252;DHT22;9760;50.944;5.304;2023-05-10T06:23:41;12.70;99.90
19252;DHT22;9760;50.944;5.304;2023-05-10T06:26:07;12.80;99.90
19252;DHT22;9760;50.944;5.304;2023-05-10T06:28:33;12.70;99.90
19252;DHT22;9760;50.944;5.304;2023-05-10T06:30:59;12.70;99.90
19252;DHT22;9760;50.944;5.304;2023-05-10T06:33:25;12.70;99.90
19252;DHT22;9760;50.944;5.304;2023-05-10T06:35:51;12.80;99.90
19252;DHT22;9760;50.944;5.304;2023-05-10T06:38:17;12.80;99.90
19252;DHT22;9760;50.944;5.304;2023-05-10T06:40:43;12.80;99.90
19252;DHT22;9760;50.944;5.304;2023-05-10T06:43:09;12.80;99.90
19252;DHT22;9760;50.944;5.304;2023-05-10T06:45:35;12.70;99.90
19252;DHT22;9760;50.944;5.304;2023-05-10T06:48:01;12.70;99.90
19252;DHT22;9760;50.944;5.304;2023-05-10T06:50:27;12.80;99.90
19252;DHT22;9760;50.944;5.304;2023-05-10T06:52:52;12.70;99.90
19252;DHT22;9760;50.944;5.304;2023-05-10T06:55:18;12.80;99.90
19252;DHT22;9760;50.944;5.304;2023-05-10T06:57:44;12.70;99.90
19252;DHT22;9760;50.944;5.304;2023-05-10T07:00:09;12.80;99.90
19252;DHT22;9760;50.944;5.304;2023-05-10T07:02:35;12.80;99.90
19252;DHT22;9760;50.944;5.304;2023-05-10T07:05:01;12.80;99.90
19252;DHT22;9760;50.944;5.304;2023-05-10T07:07:27;12.90;99.90
19252;DHT22;9760;50.944;5.304;2023-05-10T07:09:53;12.90;99.90
19252;DHT22;9760;50.944;5.304;2023-05-10T07:12:19;12.90;99.90
19252;DHT22;9760;50.944;5.304;2023-05-10T07:14:45;12.80;99.90
19252;DHT22;9760;50.944;5.304;2023-05-10T07:17:11;12.90;99.90
19252;DHT22;9760;50.944;5.304;2023-05-10T07:19:36;12.90;99.90
19252;DHT22;9760;50.944;5.304;2023-05-10T07:22:02;12.90;99.90
19252;DHT22;9760;50.944;5.304;2023-05-10T07:24:28;12.90;99.90
19252;DHT22;9760;50.944;5.304;2023-05-10T07:26:53;12.90;99.90
19252;DHT22;9760;50.944;5.304;2023-05-10T07:29:19;13.00;99.90
19252;DHT22;9760;50.944;5.304;2023-05-10T07:31:45;13.10;99.90
19252;DHT22;9760;50.944;5.304;2023-05-10T07:34:10;13.00;99.90
19252;DHT22;9760;50.944;5.304;2023-05-10T07:36:36;13.00;99.90
19252;DHT22;9760;50.944;5.304;2023-05-10T07:39:02;13.10;99.90
19252;DHT22;9760;50.944;5.304;2023-05-10T07:41:28;13.10;99.90
19252;DHT22;9760;50.944;5.304;2023-05-10T07:43:54;13.10;99.90
19252;DHT22;9760;50.944;5.304;2023-05-10T07:46:22;13.20;99.90
19252;DHT22;9760;50.944;5.304;2023-05-10T07:48:49;13.30;99.90
19252;DHT22;9760;50.944;5.304;2023-05-10T07:51:15;13.40;99.90
19252;DHT22;9760;50.944;5.304;2023-05-10T07:53:41;13.30;99.90
19252;DHT22;9760;50.944;5.304;2023-05-10T07:56:27;13.30;99.90
19252;DHT22;9760;50.944;5.304;2023-05-10T07:58:55;13.40;99.90
19252;DHT22;9760;50.944;5.304;2023-05-10T08:01:22;13.40;99.90
19252;DHT22;9760;50.944;5.304;2023-05-10T08:03:47;13.40;99.90
19252;DHT22;9760;50.944;5.304;2023-05-10T08:06:14;13.40;99.90
19252;DHT22;9760;50.944;5.304;2023-05-10T08:08:41;13.30;99.90
19252;DHT22;9760;50.944;5.304;2023-05-10T08:11:06;13.30;99.90
19252;DHT22;9760;50.944;5.304;2023-05-10T08:13:32;13.30;99.90
19252;DHT22;9760;50.944;5.304;2023-05-10T08:15:58;13.10;99.90
19252;DHT22;9760;50.944;5.304;2023-05-10T08:18:24;13.00;99.90
19252;DHT22;9760;50.944;5.304;2023-05-10T08:20:50;13.00;99.90
19252;DHT22;9760;50.944;5.304;2023-05-10T08:23:15;13.00;99.90
19252;DHT22;9760;50.944;5.304;2023-05-10T08:25:41;13.00;99.90
19252;DHT22;9760;50.944;5.304;2023-05-10T08:28:06;12.80;99.90
19252;DHT22;9760;50.944;5.304;2023-05-10T08:30:32;12.70;99.90
19252;DHT22;9760;50.944;5.304;2023-05-10T08:32:58;12.60;99.90
19252;DHT22;9760;50.944;5.304;2023-05-10T08:35:24;12.60;99.90
19252;DHT22;9760;50.944;5.304;2023-05-10T08:37:50;12.60;99.90
19252;DHT22;9760;50.944;5.304;2023-05-10T08:40:19;12.60;99.90
19252;DHT22;9760;50.944;5.304;2023-05-10T08:42:59;12.60;99.90
19252;DHT22;9760;50.944;5.304;2023-05-10T08:45:27;12.70;99.90
19252;DHT22;9760;50.944;5.304;2023-05-10T08:47:57;12.60;99.90
19252;DHT22;9760;50.944;5.304;2023-05-10T08:50:24;12.60;99.90
19252;DHT22;9760;50.944;5.304;2023-05-10T08:52:52;12.60;99.90
19252;DHT22;9760;50.944;5.304;2023-05-10T08:55:20;12.60;99.90
19252;DHT22;9760;50.944;5.304;2023-05-10T08:57:48;12.50;99.90
19252;DHT22;9760;50.944;5.304;2023-05-10T09:00:14;12.50;99.90
19252;DHT22;9760;50.944;5.304;2023-05-10T09:02:42;12.50;99.90
19252;DHT22;9760;50.944;5.304;2023-05-10T09:05:08;12.50;99.90
19252;DHT22;9760;50.944;5.304;2023-05-10T09:07:36;12.60;99.90
19252;DHT22;9760;50.944;5.304;2023-05-10T09:10:02;12.60;99.90
19252;DHT22;9760;50.944;5.304;2023-05-10T09:12:29;12.80;99.90
19252;DHT22;9760;50.944;5.304;2023-05-10T09:14:55;12.70;99.90
19252;DHT22;9760;50.944;5.304;2023-05-10T09:17:24;12.80;99.90
19252;DHT22;9760;50.944;5.304;2023-05-10T09:19:58;12.90;99.90
19252;DHT22;9760;50.944;5.304;2023-05-10T09:22:24;12.90;99.90
19252;DHT22;9760;50.944;5.304;2023-05-10T09:25:12;13.00;99.90
19252;DHT22;9760;50.944;5.304;2023-05-10T09:27:39;13.00;99.90
19252;DHT22;9760;50.944;5.304;2023-05-10T09:30:06;13.00;99.90
19252;DHT22;9760;50.944;5.304;2023-05-10T09:32:47;13.20;99.90
19252;DHT22;9760;50.944;5.304;2023-05-10T09:35:17;13.20;99.90
19252;DHT22;9760;50.944;5.304;2023-05-10T09:37:48;13.10;99.90
19252;DHT22;9760;50.944;5.304;2023-05-10T09:40:25;13.30;99.90
19252;DHT22;9760;50.944;5.304;2023-05-10T09:42:55;13.40;99.90
19252;DHT22;9760;50.944;5.304;2023-05-10T09:45:22;13.50;99.90
19252;DHT22;9760;50.944;5.304;2023-05-10T09:47:48;13.40;99.90
19252;DHT22;9760;50.944;5.304;2023-05-10T09:50:14;13.40;99.90
19252;DHT22;9760;50.944;5.304;2023-05-10T09:52:55;13.60;99.90
19252;DHT22;9760;50.944;5.304;2023-05-10T09:55:24;13.80;99.90
19252;DHT22;9760;50.944;5.304;2023-05-10T09:57:59;13.90;99.90
19252;DHT22;9760;50.944;5.304;2023-05-10T10:00:27;13.80;99.90
19252;DHT22;9760;50.944;5.304;2023-05-10T10:02:58;13.70;99.90
19252;DHT22;9760;50.944;5.304;2023-05-10T10:05:34;13.70;99.90
19252;DHT22;9760;50.944;5.304;2023-05-10T10:08:03;13.80;99.90
19252;DHT22;9760;50.944;5.304;2023-05-10T10:10:29;13.90;99.90
19252;DHT22;9760;50.944;5.304;2023-05-10T10:12:56;13.80;99.90
19252;DHT22;9760;50.944;5.304;2023-05-10T10:15:22;13.80;99.90
19252;DHT22;9760;50.944;5.304;2023-05-10T10:17:49;13.80;99.90
19252;DHT22;9760;50.944;5.304;2023-05-10T10:20:16;13.80;99.90
19252;DHT22;9760;50.944;5.304;2023-05-10T10:22:42;14.00;99.90
19252;DHT22;9760;50.944;5.304;2023-05-10T10:25:18;13.90;99.90
19252;DHT22;9760;50.944;5.304;2023-05-10T10:30:48;13.90;99.90
19252;DHT22;9760;50.944;5.304;2023-05-10T10:35:45;13.90;99.90
19252;DHT22;9760;50.944;5.304;2023-05-10T10:38:12;13.90;99.90
19252;DHT22;9760;50.944;5.304;2023-05-10T10:40:38;14.10;99.90
19252;DHT22;9760;50.944;5.304;2023-05-10T10:43:39;14.10;99.90
19252;DHT22;9760;50.944;5.304;2023-05-10T10:46:17;13.90;99.90
19252;DHT22;9760;50.944;5.304;2023-05-10T10:48:52;14.00;99.90
19252;DHT22;9760;50.944;5.304;2023-05-10T10:51:39;14.10;99.90
19252;DHT22;9760;50.944;5.304;2023-05-10T10:54:10;14.20;99.90
19252;DHT22;9760;50.944;5.304;2023-05-10T10:56:36;14.20;99.90
19252;DHT22;9760;50.944;5.304;2023-05-10T10:59:01;14.30;99.90
19252;DHT22;9760;50.944;5.304;2023-05-10T11:01:35;14.40;99.90
19252;DHT22;9760;50.944;5.304;2023-05-10T11:06:34;14.60;99.90
19252;DHT22;9760;50.944;5.304;2023-05-10T11:09:08;14.70;99.90
19252;DHT22;9760;50.944;5.304;2023-05-10T11:11:35;14.70;99.90
19252;DHT22;9760;50.944;5.304;2023-05-10T11:14:06;14.60;99.90
19252;DHT22;9760;50.944;5.304;2023-05-10T11:16:44;14.50;99.90
19252;DHT22;9760;50.944;5.304;2023-05-10T11:19:12;14.60;99.90
19252;DHT22;9760;50.944;5.304;2023-05-10T11:21:50;14.50;99.90
19252;DHT22;9760;50.944;5.304;2023-05-10T11:24:18;14.30;99.90
19252;DHT22;9760;50.944;5.304;2023-05-10T11:26:45;14.40;99.90
19252;DHT22;9760;50.944;5.304;2023-05-10T11:29:12;14.50;99.90
19252;DHT22;9760;50.944;5.304;2023-05-10T11:31:45;14.70;99.90
19252;DHT22;9760;50.944;5.304;2023-05-10T11:34:25;14.50;99.90
19252;DHT22;9760;50.944;5.304;2023-05-10T11:36:52;14.80;99.90
19252;DHT22;9760;50.944;5.304;2023-05-10T11:39:19;14.70;99.90
19252;DHT22;9760;50.944;5.304;2023-05-10T11:41:48;14.60;99.90
19252;DHT22;9760;50.944;5.304;2023-05-10T11:44:14;14.60;99.90
19252;DHT22;9760;50.944;5.304;2023-05-10T11:46:40;14.60;99.90
19252;DHT22;9760;50.944;5.304;2023-05-10T11:49:07;14.60;99.90
19252;DHT22;9760;50.944;5.304;2023-05-10T11:51:34;14.80;99.90
19252;DHT22;9760;50.944;5.304;2023-05-10T11:54:01;14.80;99.90
19252;DHT22;9760;50.944;5.304;2023-05-10T11:56:32;14.80;99.90
19252;DHT22;9760;50.944;5.304;2023-05-10T11:58:58;14.70;99.90
19252;DHT22;9760;50.944;5.304;2023-05-10T12:01:25;14.70;99.90
19252;DHT22;9760;50.944;5.304;2023-05-10T12:03:53;14.90;99.90
19252;DHT22;9760;50.944;5.304;2023-05-10T12:06:20;14.90;99.90
19252;DHT22;9760;50.944;5.304;2023-05-10T12:08:47;14.90;99.90
19252;DHT22;9760;50.944;5.304;2023-05-10T12:11:13;14.90;99.90
19252;DHT22;9760;50.944;5.304;2023-05-10T12:13:42;15.00;99.90
19252;DHT22;9760;50.944;5.304;2023-05-10T12:18:43;15.00;99.90
19252;DHT22;9760;50.944;5.304;2023-05-10T12:21:12;14.80;99.90
19252;DHT22;9760;50.944;5.304;2023-05-10T12:23:40;15.00;99.90
19252;DHT22;9760;50.944;5.304;2023-05-10T12:26:06;15.10;99.90
19252;DHT22;9760;50.944;5.304;2023-05-10T12:28:33;15.10;99.90
19252;DHT22;9760;50.944;5.304;2023-05-10T12:31:00;15.10;99.90
19252;DHT22;9760;50.944;5.304;2023-05-10T12:33:26;15.20;99.90
19252;DHT22;9760;50.944;5.304;2023-05-10T12:35:53;15.30;99.90
19252;DHT22;9760;50.944;5.304;2023-05-10T12:38:32;15.30;99.90
19252;DHT22;9760;50.944;5.304;2023-05-10T12:41:02;15.20;99.90
19252;DHT22;9760;50.944;5.304;2023-05-10T12:43:28;15.10;99.90
19252;DHT22;9760;50.944;5.304;2023-05-10T12:45:53;15.30;99.90
19252;DHT22;9760;50.944;5.304;2023-05-10T12:48:20;15.40;99.90
19252;DHT22;9760;50.944;5.304;2023-05-10T12:50:46;15.50;99.90
19252;DHT22;9760;50.944;5.304;2023-05-10T12:53:13;15.60;99.90
19252;DHT22;9760;50.944;5.304;2023-05-10T12:55:43;15.60;99.90
19252;DHT22;9760;50.944;5.304;2023-05-10T12:58:09;15.50;99.90
19252;DHT22;9760;50.944;5.304;2023-05-10T13:00:35;15.40;99.90
19252;DHT22;9760;50.944;5.304;2023-05-10T13:03:04;15.60;99.90
19252;DHT22;9760;50.944;5.304;2023-05-10T13:05:32;15.90;99.90
19252;DHT22;9760;50.944;5.304;2023-05-10T13:07:57;16.00;99.90
19252;DHT22;9760;50.944;5.304;2023-05-10T13:10:23;16.20;99.90
19252;DHT22;9760;50.944;5.304;2023-05-10T13:12:49;16.20;99.90
19252;DHT22;9760;50.944;5.304;2023-05-10T13:15:15;16.00;99.90
19252;DHT22;9760;50.944;5.304;2023-05-10T13:17:40;16.10;99.90
19252;DHT22;9760;50.944;5.304;2023-05-10T13:20:08;16.20;99.90
19252;DHT22;9760;50.944;5.304;2023-05-10T13:22:35;16.20;99.90
19252;DHT22;9760;50.944;5.304;2023-05-10T13:25:01;16.50;99.90
19252;DHT22;9760;50.944;5.304;2023-05-10T13:27:26;16.50;99.90
19252;DHT22;9760;50.944;5.304;2023-05-10T13:29:52;16.60;99.90
19252;DHT22;9760;50.944;5.304;2023-05-10T13:32:18;16.60;99.90
19252;DHT22;9760;50.944;5.304;2023-05-10T13:34:43;16.60;99.90
19252;DHT22;9760;50.944;5.304;2023-05-10T13:37:09;16.60;99.90
19252;DHT22;9760;50.944;5.304;2023-05-10T13:39:35;17.00;99.90
19252;DHT22;9760;50.944;5.304;2023-05-10T13:42:03;17.30;99.90
19252;DHT22;9760;50.944;5.304;2023-05-10T13:44:29;17.30;99.90
19252;DHT22;9760;50.944;5.304;2023-05-10T13:46:55;17.00;99.90
19252;DHT22;9760;50.944;5.304;2023-05-10T13:49:21;17.30;99.90
19252;DHT22;9760;50.944;5.304;2023-05-10T13:51:47;17.40;99.90
19252;DHT22;9760;50.944;5.304;2023-05-10T13:54:13;17.60;99.90
19252;DHT22;9760;50.944;5.304;2023-05-10T13:56:39;17.70;99.90
19252;DHT22;9760;50.944;5.304;2023-05-10T13:59:06;17.60;99.90
19252;DHT22;9760;50.944;5.304;2023-05-10T14:01:33;17.30;99.90
19252;DHT22;9760;50.944;5.304;2023-05-10T14:03:59;17.20;99.90
19252;DHT22;9760;50.944;5.304;2023-05-10T14:06:25;17.50;99.90
19252;DHT22;9760;50.944;5.304;2023-05-10T14:08:51;17.30;99.90
19252;DHT22;9760;50.944;5.304;2023-05-10T14:11:17;17.20;99.90
19252;DHT22;9760;50.944;5.304;2023-05-10T14:13:43;17.10;99.90
19252;DHT22;9760;50.944;5.304;2023-05-10T14:16:08;17.20;99.90
19252;DHT22;9760;50.944;5.304;2023-05-10T14:18:34;17.20;99.90
19252;DHT22;9760;50.944;5.304;2023-05-10T14:21:01;17.20;99.90
19252;DHT22;9760;50.944;5.304;2023-05-10T14:23:27;16.90;99.90
19252;DHT22;9760;50.944;5.304;2023-05-10T14:25:54;16.80;99.90
19252;DHT22;9760;50.944;5.304;2023-05-10T14:28:20;16.90;99.90
19252;DHT22;9760;50.944;5.304;2023-05-10T14:30:46;16.90;99.90
19252;DHT22;9760;50.944;5.304;2023-05-10T14:33:12;17.10;99.90
19252;DHT22;9760;50.944;5.304;2023-05-10T14:35:39;17.20;99.90
19252;DHT22;9760;50.944;5.304;2023-05-10T14:38:05;17.30;99.90
19252;DHT22;9760;50.944;5.304;2023-05-10T14:40:31;17.20;99.90
19252;DHT22;9760;50.944;5.304;2023-05-10T14:42:57;17.40;99.90
19252;DHT22;9760;50.944;5.304;2023-05-10T14:45:22;17.60;99.90
19252;DHT22;9760;50.944;5.304;2023-05-10T14:47:49;17.60;99.90
19252;DHT22;9760;50.944;5.304;2023-05-10T14:50:15;17.90;99.90
19252;DHT22;9760;50.944;5.304;2023-05-10T14:52:42;18.20;99.90
19252;DHT22;9760;50.944;5.304;2023-05-10T14:55:08;18.30;99.90
19252;DHT22;9760;50.944;5.304;2023-05-10T14:57:34;18.20;99.90
19252;DHT22;9760;50.944;5.304;2023-05-10T14:59:59;18.10;99.90
19252;DHT22;9760;50.944;5.304;2023-05-10T15:02:25;18.20;99.90
19252;DHT22;9760;50.944;5.304;2023-05-10T15:04:51;17.90;99.90
19252;DHT22;9760;50.944;5.304;2023-05-10T15:07:17;17.80;99.90
19252;DHT22;9760;50.944;5.304;2023-05-10T15:09:44;18.00;99.90
19252;DHT22;9760;50.944;5.304;2023-05-10T15:12:10;17.60;99.90
19252;DHT22;9760;50.944;5.304;2023-05-10T15:14:35;17.50;99.90
19252;DHT22;9760;50.944;5.304;2023-05-10T15:17:02;17.40;99.90
19252;DHT22;9760;50.944;5.304;2023-05-10T15:19:29;17.60;99.90
19252;DHT22;9760;50.944;5.304;2023-05-10T15:21:55;17.60;99.90
19252;DHT22;9760;50.944;5.304;2023-05-10T15:24:21;17.50;99.90
19252;DHT22;9760;50.944;5.304;2023-05-10T15:26:47;17.60;99.90
19252;DHT22;9760;50.944;5.304;2023-05-10T15:29:13;17.50;99.90
19252;DHT22;9760;50.944;5.304;2023-05-10T15:31:48;17.70;99.90
19252;DHT22;9760;50.944;5.304;2023-05-10T15:34:14;18.10;99.90
19252;DHT22;9760;50.944;5.304;2023-05-10T15:36:40;17.90;99.90
19252;DHT22;9760;50.944;5.304;2023-05-10T15:39:06;17.90;99.90
19252;DHT22;9760;50.944;5.304;2023-05-10T15:41:32;17.90;99.90
19252;DHT22;9760;50.944;5.304;2023-05-10T15:43:58;18.30;99.90
19252;DHT22;9760;50.944;5.304;2023-05-10T15:46:30;19.00;99.90
19252;DHT22;9760;50.944;5.304;2023-05-10T15:49:03;19.20;99.90
19252;DHT22;9760;50.944;5.304;2023-05-10T15:51:29;18.90;99.90
19252;DHT22;9760;50.944;5.304;2023-05-10T15:53:54;18.50;99.90
19252;DHT22;9760;50.944;5.304;2023-05-10T15:56:21;18.20;99.90
19252;DHT22;9760;50.944;5.304;2023-05-10T15:58:47;18.10;99.90
19252;DHT22;9760;50.944;5.304;2023-05-10T16:01:13;18.10;99.90
19252;DHT22;9760;50.944;5.304;2023-05-10T16:03:38;18.30;99.90
19252;DHT22;9760;50.944;5.304;2023-05-10T16:06:04;18.00;99.90
19252;DHT22;9760;50.944;5.304;2023-05-10T16:08:31;18.10;99.90
19252;DHT22;9760;50.944;5.304;2023-05-10T16:10:58;18.30;99.90
19252;DHT22;9760;50.944;5.304;2023-05-10T16:13:24;18.60;99.90
19252;DHT22;9760;50.944;5.304;2023-05-10T16:15:50;18.60;99.90
19252;DHT22;9760;50.944;5.304;2023-05-10T16:18:15;18.80;99.90
19252;DHT22;9760;50.944;5.304;2023-05-10T16:20:43;18.60;99.90
19252;DHT22;9760;50.944;5.304;2023-05-10T16:23:08;18.30;99.90
19252;DHT22;9760;50.944;5.304;2023-05-10T16:25:34;18.10;99.90